Time;durP1;ratioP1;P1;durP2;ratioP2;P2;SDS_P1;SDS_P2;PMS_P1;PMS_P2;Temp;Humidity;BMP_temperature;BMP_pressure;BME280_temperature;BME280_humidity;BME280_pressure;Samples;Min_cycle;Max_cycle;Signal;HPM_P1;HPM_P2
2022/11/19 00:01:17;;;;;;;22.10;15.90;;;;;;;-1.70;82.49;98004.80;88320;1313;99049;-83
2022/11/19 00:03:21;;;;;;;24.10;15.20;;;;;;;-1.69;82.63;98007.02;88145;1306;22301;-86
2022/11/19 00:05:39;;;;;;;24.00;15.30;;;;;;;-1.68;82.62;98001.48;88317;1306;22182;-80
2022/11/19 00:07:41;;;;;;;24.90;14.40;;;;;;;-1.67;82.47;98004.08;88331;1310;99028;-84
2022/11/19 00:09:43;;;;;;;24.40;15.10;;;;;;;-1.65;82.52;98001.98;88397;1312;22721;-84
2022/11/19 00:14:25;;;;;;;20.40;13.90;;;;;;;-1.66;82.40;98005.94;88282;1313;22445;-78
2022/11/19 00:16:27;;;;;;;21.20;13.30;;;;;;;-1.66;82.53;98004.39;88225;1315;22552;-80
2022/11/19 00:18:29;;;;;;;24.50;13.00;;;;;;;-1.71;82.56;97993.27;88129;1316;98424;-79
2022/11/19 00:20:34;;;;;;;19.60;14.00;;;;;;;-1.67;82.38;97996.14;88492;1300;22190;-81
2022/11/19 00:22:36;;;;;;;17.00;13.20;;;;;;;-1.67;82.28;98003.90;88125;1304;22464;-87
2022/11/19 00:24:38;;;;;;;20.20;14.70;;;;;;;-1.67;82.26;98006.83;88011;1313;98589;-84
2022/11/19 00:26:40;;;;;;;19.40;15.00;;;;;;;-1.66;82.32;98010.08;87613;1316;24270;-86
2022/11/19 00:28:42;;;;;;;20.80;14.90;;;;;;;-1.66;82.32;98016.79;87689;1315;22698;-85
2022/11/19 00:30:45;;;;;;;16.90;12.70;;;;;;;-1.68;82.26;98015.45;87693;1319;98667;-83
2022/11/19 00:32:47;;;;;;;18.10;13.80;;;;;;;-1.71;82.15;98016.36;87722;1317;23331;-80
2022/11/19 00:34:49;;;;;;;18.40;13.60;;;;;;;-1.71;82.18;98021.52;87712;1310;25287;-87
2022/11/19 00:36:55;;;;;;;21.80;14.20;;;;;;;-1.72;82.17;98021.35;87806;1310;98811;-78
2022/11/19 00:38:58;;;;;;;17.50;13.60;;;;;;;-1.73;82.08;98020.69;87758;1316;22512;-85
2022/11/19 00:41:03;;;;;;;21.20;14.20;;;;;;;-1.75;82.05;98018.48;87920;1299;22589;-80
2022/11/19 00:45:26;;;;;;;18.80;13.10;;;;;;;-1.74;82.08;98025.35;88073;1310;24361;-88
2022/11/19 00:47:28;;;;;;;20.80;13.70;;;;;;;-1.75;82.14;98027.44;87709;1309;22458;-87
2022/11/19 00:49:30;;;;;;;15.00;12.30;;;;;;;-1.78;81.95;98028.67;87819;1313;98584;-83
2022/11/19 00:51:31;;;;;;;18.60;12.80;;;;;;;-1.79;82.03;98024.73;87987;1313;22683;-83
2022/11/19 00:53:34;;;;;;;18.30;13.60;;;;;;;-1.78;81.99;98020.42;87953;1311;22596;-82
2022/11/19 00:55:37;;;;;;;22.90;14.60;;;;;;;-1.79;82.10;98015.60;87826;1311;98599;-84
2022/11/19 00:57:39;;;;;;;22.10;15.20;;;;;;;-1.79;81.94;98016.98;88130;1310;22794;-84
2022/11/19 00:59:41;;;;;;;22.40;15.60;;;;;;;-1.81;82.01;98017.86;88158;1294;22521;-84
2022/11/19 01:01:43;;;;;;;19.70;13.90;;;;;;;-1.81;82.02;98021.66;88096;1307;98468;-82
2022/11/19 01:03:46;;;;;;;20.20;13.60;;;;;;;-1.83;81.80;98022.54;88141;1310;22823;-81
2022/11/19 01:05:51;;;;;;;18.20;13.80;;;;;;;-1.82;81.89;98022.89;88157;1295;22490;-82
2022/11/19 01:07:53;;;;;;;19.40;14.20;;;;;;;-1.84;81.92;98024.80;88031;1310;99197;-82
2022/11/19 01:09:57;;;;;;;23.40;14.10;;;;;;;-1.85;81.85;98027.58;88023;1300;22310;-83
2022/11/19 01:11:59;;;;;;;18.20;14.40;;;;;;;-1.85;81.78;98022.77;88090;1310;22534;-85
2022/11/19 01:14:02;;;;;;;20.60;14.80;;;;;;;-1.86;81.78;98023.64;88026;1313;99061;-84
2022/11/19 01:16:08;;;;;;;21.70;15.90;;;;;;;-1.87;81.80;98024.14;88073;1313;22963;-83
2022/11/19 01:18:13;;;;;;;21.70;15.60;;;;;;;-1.86;81.90;98023.29;88095;1313;23747;-81
2022/11/19 01:20:15;;;;;;;23.10;15.30;;;;;;;-1.90;81.86;98018.69;87998;1298;99184;-82
2022/11/19 01:22:23;;;;;;;21.10;15.90;;;;;;;-1.86;81.91;98024.31;88029;1295;22581;-86
2022/11/19 01:24:25;;;;;;;20.50;16.10;;;;;;;-1.88;81.75;98033.80;87945;1304;98881;-86
2022/11/19 01:26:30;;;;;;;21.90;15.50;;;;;;;-1.96;81.76;98019.61;88031;1304;22496;-87
2022/11/19 01:28:33;;;;;;;26.40;14.00;;;;;;;-1.88;81.91;98034.84;88122;1305;22521;-87
2022/11/19 01:30:41;;;;;;;20.10;14.70;;;;;;;-1.89;81.74;98038.98;87786;1303;99302;-85
2022/11/19 01:32:43;;;;;;;19.60;14.40;;;;;;;-1.89;81.87;98036.73;87949;1290;22524;-87
2022/11/19 01:34:49;;;;;;;23.20;14.50;;;;;;;-1.89;81.74;98037.95;88027;1295;22592;-82
2022/11/19 01:36:51;;;;;;;20.10;15.10;;;;;;;-1.88;81.89;98034.33;87897;1295;99074;-81
2022/11/19 01:38:54;;;;;;;20.50;13.80;;;;;;;-1.87;81.87;98042.75;87948;1307;22241;-81
2022/11/19 01:40:58;;;;;;;23.60;15.20;;;;;;;-1.89;81.89;98041.73;87908;1306;22275;-86
2022/11/19 01:43:00;;;;;;;29.00;15.70;;;;;;;-1.89;81.87;98041.39;87804;1288;99028;-86
2022/11/19 01:45:06;;;;;;;25.80;14.70;;;;;;;-1.89;81.88;98043.27;87917;1298;23931;-84
2022/11/19 01:47:08;;;;;;;21.70;15.60;;;;;;;-1.89;81.90;98043.11;87897;1298;22481;-85
2022/11/19 01:49:22;;;;;;;22.40;14.80;;;;;;;-1.93;81.99;98027.33;87876;1311;99233;-82
2022/11/19 01:51:35;;;;;;;19.10;14.80;;;;;;;-1.89;81.91;98041.91;88014;1310;22449;-87
2022/11/19 01:55:49;;;;;;;22.80;14.90;;;;;;;-1.86;81.98;98037.56;85212;1320;555804;-75
2022/11/19 01:57:55;;;;;;;;;;;;;;;-1.87;81.88;98045.15;86779;1298;22594;-78
2022/11/19 01:59:57;;;;;;;21.30;14.80;;;;;;;-1.89;81.88;98047.41;86659;1305;22510;-75
2022/11/19 02:02:00;;;;;;;22.00;15.00;;;;;;;-1.90;81.84;98048.82;86594;1299;97118;-75
2022/11/19 02:04:03;;;;;;;20.70;15.30;;;;;;;-1.91;81.95;98050.54;87270;1307;22743;-74
2022/11/19 02:06:05;;;;;;;22.40;16.00;;;;;;;-1.91;81.87;98062.25;87012;1315;22552;-75
2022/11/19 02:08:29;;;;;;;20.10;16.00;;;;;;;-1.91;81.95;98061.40;87075;1310;97025;-75
2022/11/19 02:11:02;;;;;;;25.60;15.60;;;;;;;-1.90;81.96;98056.91;87035;1296;22653;-76
2022/11/19 02:13:21;;;;;;;21.80;15.00;;;;;;;-1.89;82.04;98058.08;87130;1292;98355;-75
2022/11/19 02:15:34;;;;;;;22.10;14.60;;;;;;;-1.92;81.98;98063.99;87369;1287;25235;-73
2022/11/19 02:17:45;;;;;;;20.10;13.90;;;;;;;-1.95;81.85;98069.02;87473;1280;22549;-75
2022/11/19 02:20:04;;;;;;;23.80;16.30;;;;;;;-1.97;81.95;98069.38;87304;1293;99146;-76
2022/11/19 02:22:25;;;;;;;21.50;14.60;;;;;;;-1.98;81.96;98070.95;87274;1289;23867;-73
2022/11/19 02:25:00;;;;;;;21.80;15.80;;;;;;;-1.98;82.02;98077.14;87072;1290;99333;-73
2022/11/19 02:27:13;;;;;;;21.40;15.70;;;;;;;-1.99;81.84;98084.91;87190;1297;24303;-76
2022/11/19 02:29:29;;;;;;;23.90;14.80;;;;;;;-2.06;81.81;98076.20;87261;1282;22483;-75
2022/11/19 02:31:40;;;;;;;22.70;14.80;;;;;;;-2.06;81.87;98087.57;87157;1281;97447;-74
2022/11/19 02:33:56;;;;;;;24.40;15.60;;;;;;;-2.07;81.92;98092.06;87052;1309;22622;-75
2022/11/19 02:36:08;;;;;;;22.10;16.30;;;;;;;-2.08;81.83;98097.91;87098;1293;22631;-74
2022/11/19 02:38:17;;;;;;;;;;;;;;;-2.07;81.89;98102.21;87060;1300;97342;-76
2022/11/19 02:40:24;;;;;;;22.80;16.00;;;;;;;-2.08;81.89;98102.22;87041;1293;22534;-72
2022/11/19 02:42:34;;;;;;;22.50;15.90;;;;;;;-2.10;81.94;98097.77;86995;1283;98569;-74
2022/11/19 02:45:01;;;;;;;24.20;16.70;;;;;;;-2.11;81.91;98101.38;87165;1298;23219;-74
2022/11/19 02:47:14;;;;;;;25.00;16.40;;;;;;;-2.12;81.88;98103.47;87124;1290;26010;-74
2022/11/19 02:49:21;;;;;;;22.90;16.80;;;;;;;-2.13;81.81;98109.68;87061;1283;97594;-73
2022/11/19 02:51:22;;;;;;;22.70;16.80;;;;;;;-2.15;81.89;98106.78;87180;1289;22509;-76
2022/11/19 02:53:23;;;;;;;;;;;;;;;-2.15;81.75;98105.40;87054;1286;26119;-74
2022/11/19 02:55:26;;;;;;;21.50;17.10;;;;;;;-2.15;81.96;98107.64;87069;1307;83457;-73
2022/11/19 02:57:27;;;;;;;24.90;16.60;;;;;;;-2.15;81.83;98113.31;87105;1312;22475;-74
2022/11/19 03:04:30;;;;;;;27.50;18.40;;;;;;;-2.14;81.99;98138.61;87210;1306;22882;-72
2022/11/19 03:06:33;;;;;;;25.20;17.60;;;;;;;-2.13;81.87;98139.27;87015;1289;97662;-75
2022/11/19 03:08:34;;;;;;;26.70;17.90;;;;;;;-2.14;81.94;98138.95;87276;1297;22508;-75
2022/11/19 03:11:02;;;;;;;26.50;19.40;;;;;;;-2.15;81.87;98141.54;87043;1300;22670;-73
2022/11/19 03:18:15;;;;;;;25.80;17.70;;;;;;;-2.11;82.06;98139.08;87005;1304;24385;-76
2022/11/19 03:20:31;;;;;;;24.10;17.00;;;;;;;-2.10;81.93;98140.97;87178;1291;98582;-74
2022/11/19 03:22:41;;;;;;;25.70;18.20;;;;;;;-2.10;82.08;98142.34;87020;1294;22447;-74
2022/11/19 03:24:47;;;;;;;27.00;17.70;;;;;;;-2.10;81.99;98140.98;87092;1300;98879;-75
2022/11/19 03:26:55;;;;;;;25.60;17.60;;;;;;;-2.11;82.04;98142.36;87165;1299;25250;-73
2022/11/19 03:29:01;;;;;;;29.80;19.10;;;;;;;-2.11;82.06;98142.02;86931;1294;23815;-72
2022/11/19 03:31:04;;;;;;;25.90;19.50;;;;;;;-2.09;82.17;98146.98;86895;1291;101557;-74
2022/11/19 03:33:16;;;;;;;31.40;18.40;;;;;;;-2.08;82.17;98144.05;87029;1291;22497;-73
2022/11/19 03:35:27;;;;;;;25.90;18.40;;;;;;;-2.08;82.04;98140.77;86884;1297;22498;-74
2022/11/19 03:37:31;;;;;;;27.40;18.50;;;;;;;-2.07;82.07;98142.33;86748;1291;98470;-73
2022/11/19 03:39:35;;;;;;;24.50;18.70;;;;;;;-2.07;82.16;98147.49;86878;1300;22523;-74
2022/11/19 03:41:39;;;;;;;30.70;20.30;;;;;;;-2.06;82.07;98150.91;87045;1292;22444;-75
2022/11/19 03:43:44;;;;;;;26.10;19.30;;;;;;;-2.07;82.11;98151.09;87028;1304;97311;-75
2022/11/19 03:45:48;;;;;;;26.80;19.40;;;;;;;-2.06;82.06;98153.66;87118;1288;22513;-75
2022/11/19 03:47:52;;;;;;;26.80;17.90;;;;;;;-2.08;82.03;98153.67;87063;1309;22457;-73
2022/11/19 03:50:01;;;;;;;26.40;18.50;;;;;;;-2.07;82.13;98159.88;87361;1280;97361;-73
2022/11/19 03:52:15;;;;;;;24.10;18.30;;;;;;;-2.09;81.92;98163.84;87509;1277;22483;-73
2022/11/19 03:54:16;;;;;;;28.00;19.70;;;;;;;-2.09;82.12;98159.02;87200;1287;22874;-75
2022/11/19 03:56:21;;;;;;;25.80;19.20;;;;;;;-2.08;82.13;98161.77;87333;1286;97834;-73
2022/11/19 03:58:24;;;;;;;25.30;18.30;;;;;;;-2.08;82.13;98166.77;87223;1301;22961;-74
2022/11/19 04:00:25;;;;;;;28.70;19.30;;;;;;;-2.08;82.08;98170.38;87398;1283;22481;-74
2022/11/19 04:02:26;;;;;;;26.40;18.60;;;;;;;-2.07;82.07;98170.89;87049;1290;22429;-73
2022/11/19 04:04:36;;;;;;;29.40;19.40;;;;;;;-2.07;82.08;98163.48;87010;1284;22816;-73
2022/11/19 04:06:37;;;;;;;32.90;20.10;;;;;;;-2.07;82.13;98165.73;87054;1292;98016;-75
2022/11/19 04:08:38;;;;;;;32.60;19.30;;;;;;;-2.09;82.03;98168.48;87360;1291;22805;-75
2022/11/19 04:10:39;;;;;;;33.70;20.10;;;;;;;-2.10;82.04;98170.23;87361;1292;22499;-73
2022/11/19 04:12:40;;;;;;;25.00;18.60;;;;;;;-2.10;82.10;98170.57;87237;1285;98241;-73
2022/11/19 04:14:41;;;;;;;30.50;19.90;;;;;;;-2.10;82.11;98171.95;87108;1279;22485;-71
2022/11/19 04:16:42;;;;;;;27.00;19.20;;;;;;;-2.09;82.09;98176.41;87230;1293;22550;-73
2022/11/19 04:18:43;;;;;;;27.90;19.30;;;;;;;-2.09;82.15;98178.48;86963;1295;97688;-73
2022/11/19 04:20:44;;;;;;;28.20;19.30;;;;;;;-2.10;81.97;98181.75;87339;1275;22546;-72
2022/11/19 04:22:45;;;;;;;25.90;19.90;;;;;;;-2.10;82.01;98186.92;87196;1308;23510;-73
2022/11/19 04:24:46;;;;;;;28.50;19.30;;;;;;;-2.12;82.00;98183.50;87136;1288;98003;-74
2022/11/19 04:26:48;;;;;;;25.00;19.00;;;;;;;-2.13;81.80;98183.67;87169;1302;22770;-72
2022/11/19 04:28:49;;;;;;;33.70;20.30;;;;;;;-2.14;81.94;98186.79;87053;1287;22495;-73
2022/11/19 04:30:50;;;;;;;30.50;19.10;;;;;;;-2.12;82.04;98187.46;87256;1291;99408;-72
2022/11/19 04:32:53;;;;;;;24.10;17.90;;;;;;;-2.11;81.93;98182.98;87401;1275;22479;-74
2022/11/19 04:34:54;;;;;;;28.90;20.90;;;;;;;-2.10;82.02;98189.69;87442;1305;22515;-73
2022/11/19 04:36:55;;;;;;;32.40;19.30;;;;;;;-2.09;81.93;98199.14;87227;1301;97488;-73
2022/11/19 04:38:56;;;;;;;27.50;19.20;;;;;;;-2.07;82.07;98198.09;87123;1286;22508;-74
2022/11/19 04:40:57;;;;;;;29.10;20.20;;;;;;;-2.07;82.05;98197.22;87237;1287;22788;-73
2022/11/19 04:42:58;;;;;;;25.40;18.70;;;;;;;-2.09;81.83;98198.44;87023;1287;98005;-72
2022/11/19 04:44:59;;;;;;;29.40;21.30;;;;;;;-2.07;82.05;98199.13;87304;1280;24066;-72
2022/11/19 04:47:02;;;;;;;29.40;20.50;;;;;;;-2.07;81.97;98196.17;87184;1292;22483;-73
2022/11/19 04:49:03;;;;;;;29.70;20.10;;;;;;;-2.06;82.14;98198.60;87144;1284;99243;-73
2022/11/19 04:51:05;;;;;;;32.10;19.20;;;;;;;-2.06;81.89;98200.65;87214;1300;22687;-75
2022/11/19 04:53:06;;;;;;;;;;;;;;;-2.06;82.06;98206.16;87122;1289;23376;-72
2022/11/19 04:55:07;;;;;;;26.30;18.70;;;;;;;-2.07;82.02;98206.52;87242;1288;84856;-73
2022/11/19 04:57:08;;;;;;;26.20;17.70;;;;;;;-2.05;81.97;98209.23;87301;1285;22510;-74
2022/11/19 04:59:09;;;;;;;30.20;19.90;;;;;;;-2.04;82.00;98214.58;87237;1286;22502;-75
2022/11/19 05:01:10;;;;;;;36.20;21.50;;;;;;;-2.06;81.96;98215.11;87321;1289;97667;-73
2022/11/19 05:03:11;;;;;;;30.50;19.10;;;;;;;-2.05;82.04;98216.98;87145;1310;22487;-74
2022/11/19 05:05:12;;;;;;;27.40;19.60;;;;;;;-2.06;81.81;98216.31;87431;1306;22502;-74
2022/11/19 05:07:13;;;;;;;24.00;18.00;;;;;;;-2.05;81.95;98225.08;87177;1284;98341;-75
2022/11/19 05:09:14;;;;;;;29.00;18.60;;;;;;;-2.02;81.92;98227.13;87347;1292;23939;-74
2022/11/19 05:11:16;;;;;;;25.80;19.00;;;;;;;-2.02;81.97;98231.42;87405;1307;23090;-74
2022/11/19 05:13:17;;;;;;;31.00;19.40;;;;;;;-2.00;82.14;98230.20;87350;1299;98989;-73
2022/11/19 05:15:18;;;;;;;27.90;20.40;;;;;;;-1.96;82.14;98228.11;87330;1293;22579;-75
2022/11/19 05:17:19;;;;;;;29.10;20.70;;;;;;;-1.97;82.06;98229.14;87293;1292;22553;-74
2022/11/19 05:19:20;;;;;;;31.40;20.20;;;;;;;-1.97;82.05;98238.09;87343;1305;97607;-74
2022/11/19 05:21:21;;;;;;;27.90;19.50;;;;;;;-1.97;81.86;98244.98;87333;1286;22497;-72
2022/11/19 05:23:23;;;;;;;28.60;19.50;;;;;;;-1.97;82.20;98251.00;87602;1300;22663;-73
2022/11/19 05:25:24;;;;;;;23.80;18.40;;;;;;;-1.98;82.04;98256.88;87748;1302;97603;-77
2022/11/19 05:27:25;;;;;;;25.70;17.90;;;;;;;-1.97;82.10;98261.15;87960;1311;22496;-73
2022/11/19 05:29:26;;;;;;;24.80;18.40;;;;;;;-1.96;82.18;98265.80;87767;1301;22274;-73
2022/11/19 05:31:27;;;;;;;29.90;18.10;;;;;;;-1.95;82.04;98266.14;87135;1285;97881;-75
2022/11/19 05:33:28;;;;;;;29.30;19.10;;;;;;;-1.93;82.20;98273.86;87521;1275;22482;-73
2022/11/19 05:35:29;;;;;;;27.80;19.70;;;;;;;-1.93;82.04;98273.19;87359;1309;22504;-74
2022/11/19 05:37:30;;;;;;;27.20;19.20;;;;;;;-1.92;81.99;98274.88;87295;1285;99060;-77
2022/11/19 05:39:31;;;;;;;33.60;19.40;;;;;;;-1.92;82.10;98276.61;87274;1287;22553;-72
2022/11/19 05:41:33;;;;;;;31.90;19.90;;;;;;;-1.93;82.08;98279.20;87255;1311;22485;-74
2022/11/19 05:43:34;;;;;;;29.40;19.30;;;;;;;-1.93;81.98;98283.34;87284;1289;97672;-75
2022/11/19 05:45:35;;;;;;;32.60;20.80;;;;;;;-1.94;82.07;98291.09;87535;1284;22495;-74
2022/11/19 05:47:37;;;;;;;29.10;19.40;;;;;;;-1.94;82.10;98287.13;87526;1292;22471;-74
2022/11/19 05:49:38;;;;;;;28.70;19.50;;;;;;;-1.96;82.02;98284.39;87375;1283;99028;-74
2022/11/19 05:51:39;;;;;;;24.50;19.50;;;;;;;-1.98;81.97;98287.01;87285;1281;22493;-73
2022/11/19 05:53:41;;;;;;;27.40;20.30;;;;;;;-2.00;81.82;98289.77;87204;1289;22524;-74
2022/11/19 05:55:42;;;;;;;31.30;21.40;;;;;;;-1.98;82.01;98297.33;87336;1278;98713;-74
2022/11/19 05:57:43;;;;;;;25.40;18.80;;;;;;;-1.98;82.09;98297.48;87212;1286;22658;-74
2022/11/19 05:59:44;;;;;;;31.00;20.60;;;;;;;-1.96;81.99;98301.27;87358;1294;22670;-75
2022/11/19 06:01:45;;;;;;;28.80;20.10;;;;;;;-1.97;82.12;98302.30;87382;1293;98833;-76
2022/11/19 06:03:46;;;;;;;26.30;18.70;;;;;;;-1.93;82.17;98308.81;87523;1309;22431;-76
2022/11/19 06:05:48;;;;;;;26.20;19.50;;;;;;;-1.91;82.30;98314.66;87518;1286;22873;-78
2022/11/19 06:07:49;;;;;;;28.70;20.00;;;;;;;-1.89;82.18;98316.02;87465;1293;98092;-75
2022/11/19 06:09:50;;;;;;;28.50;19.70;;;;;;;-1.88;82.18;98323.23;87519;1303;22694;-77
2022/11/19 06:11:51;;;;;;;30.10;19.40;;;;;;;-1.89;82.19;98324.77;87605;1287;22309;-76
2022/11/19 06:13:52;;;;;;;28.50;20.20;;;;;;;-1.86;82.11;98335.96;87437;1310;97986;-77
2022/11/19 06:15:53;;;;;;;30.40;20.60;;;;;;;-1.84;82.13;98344.20;87696;1301;22189;-75
2022/11/19 06:17:57;;;;;;;26.30;19.50;;;;;;;-1.82;82.11;98346.44;87782;1307;22572;-78
2022/11/19 06:19:59;;;;;;;25.70;19.00;;;;;;;-1.81;82.07;98350.04;87636;1281;97701;-76
2022/11/19 06:22:00;;;;;;;31.20;19.00;;;;;;;-1.80;82.07;98347.10;87576;1300;22493;-76
2022/11/19 06:24:02;;;;;;;35.30;20.80;;;;;;;-1.79;81.88;98349.67;87929;1285;25239;-75
2022/11/19 06:26:03;;;;;;;31.60;19.70;;;;;;;-1.78;81.90;98345.88;87751;1305;97702;-75
2022/11/19 06:28:04;;;;;;;31.90;19.90;;;;;;;-1.78;82.00;98349.15;87609;1285;22682;-78
2022/11/19 06:30:06;;;;;;;31.10;20.20;;;;;;;-1.79;81.88;98344.33;87498;1295;22433;-76
2022/11/19 06:32:07;;;;;;;23.50;16.90;;;;;;;-1.79;81.84;98346.91;87731;1306;98941;-76
2022/11/19 06:34:09;;;;;;;22.70;17.50;;;;;;;-1.80;81.92;98350.38;87589;1312;22498;-78
2022/11/19 06:36:11;;;;;;;24.20;17.10;;;;;;;-1.81;81.90;98355.04;87642;1310;22490;-76
2022/11/19 06:38:11;;;;;;;;;;;;;;;-1.80;81.92;98358.64;87453;1310;98901;-76
2022/11/19 06:40:13;;;;;;;19.80;16.30;;;;;;;-1.82;81.83;98368.48;87593;1307;26635;-76
2022/11/19 06:44:34;;;;;;;22.90;16.20;;;;;;;-1.88;81.70;98379.36;87400;1306;23050;-77
2022/11/19 06:46:37;;;;;;;21.10;16.20;;;;;;;-1.92;81.73;98384.05;87251;1286;22553;-76
2022/11/19 06:48:39;;;;;;;22.70;16.10;;;;;;;-1.93;81.70;98388.00;87349;1287;98130;-76
2022/11/19 06:50:39;;;;;;;23.60;15.00;;;;;;;-1.95;81.63;98394.05;87357;1294;22492;-75
2022/11/19 06:52:40;;;;;;;20.70;15.90;;;;;;;-1.97;81.81;98396.83;87390;1294;22759;-75
2022/11/19 06:54:43;;;;;;;21.80;16.10;;;;;;;-1.98;81.72;98398.21;87316;1308;98017;-77
2022/11/19 06:56:44;;;;;;;18.70;15.00;;;;;;;-2.00;81.60;98398.04;87538;1301;22476;-75
2022/11/19 06:58:45;;;;;;;23.00;16.20;;;;;;;-2.03;81.58;98398.41;87468;1292;22176;-75
2022/11/19 07:00:47;;;;;;;21.10;15.10;;;;;;;-2.05;81.60;98403.75;87301;1295;98153;-76
2022/11/19 07:02:48;;;;;;;23.60;15.30;;;;;;;-2.06;81.64;98406.00;87466;1310;23169;-75
2022/11/19 07:04:49;;;;;;;24.10;17.10;;;;;;;-2.06;81.67;98408.42;87647;1289;22597;-75
2022/11/19 07:06:50;;;;;;;20.10;15.40;;;;;;;-2.05;81.66;98414.44;87408;1284;98010;-76
2022/11/19 07:08:51;;;;;;;23.40;17.10;;;;;;;-2.04;81.72;98415.64;87198;1312;22588;-76
2022/11/19 07:10:53;;;;;;;24.30;17.90;;;;;;;-2.03;81.58;98417.87;87388;1293;22623;-77
2022/11/19 07:12:54;;;;;;;24.20;16.90;;;;;;;-2.03;81.63;98415.80;87528;1288;97666;-76
2022/11/19 07:14:55;;;;;;;23.90;16.20;;;;;;;-2.07;81.53;98408.41;87224;1279;22512;-77
2022/11/19 07:16:57;;;;;;;26.60;17.90;;;;;;;-2.07;81.61;98413.25;87282;1290;24430;-77
2022/11/19 07:19:00;;;;;;;21.60;17.20;;;;;;;-2.07;81.72;98410.84;87099;1308;97927;-76
2022/11/19 07:21:01;;;;;;;23.10;17.20;;;;;;;-2.07;81.71;98417.38;87541;1299;23275;-75
2022/11/19 07:23:02;;;;;;;24.60;17.70;;;;;;;-2.08;81.70;98416.88;87479;1308;22532;-77
2022/11/19 07:25:05;;;;;;;26.80;17.60;;;;;;;-2.06;81.77;98420.99;87329;1307;97702;-76
2022/11/19 07:27:06;;;;;;;22.60;16.30;;;;;;;-2.04;81.80;98423.04;87521;1310;22493;-75
2022/11/19 07:29:10;;;;;;;21.30;16.30;;;;;;;-2.04;81.78;98427.16;87451;1309;22476;-78
2022/11/19 07:31:11;;;;;;;24.50;16.70;;;;;;;-2.07;81.70;98430.63;87553;1307;98003;-75
2022/11/19 07:33:12;;;;;;;23.30;16.50;;;;;;;-2.07;81.82;98427.71;87484;1309;24188;-77
2022/11/19 07:35:14;;;;;;;22.70;18.00;;;;;;;-2.07;81.66;98422.70;87453;1310;22433;-77
2022/11/19 07:37:15;;;;;;;;;;;;;;;-2.05;81.83;98421.50;87275;1295;97894;-76
2022/11/19 07:39:16;;;;;;;23.50;16.60;;;;;;;-2.02;81.99;98420.80;87412;1298;22751;-76
2022/11/19 07:43:39;;;;;;;27.30;16.50;;;;;;;-2.01;81.73;98419.58;87240;1308;97688;-76
2022/11/19 07:45:40;;;;;;;22.40;15.70;;;;;;;-2.03;81.65;98423.71;87386;1306;22586;-76
2022/11/19 07:47:41;;;;;;;20.40;15.50;;;;;;;-2.05;81.68;98426.65;87118;1309;22510;-76
2022/11/19 07:49:42;;;;;;;23.20;16.90;;;;;;;-2.05;81.67;98423.55;87104;1286;98134;-76
2022/11/19 07:51:43;;;;;;;24.70;17.60;;;;;;;-2.05;81.66;98429.05;87095;1293;22465;-76
2022/11/19 07:53:44;;;;;;;20.70;16.10;;;;;;;-2.04;81.79;98429.75;87034;1292;22578;-77
2022/11/19 07:55:46;;;;;;;23.90;16.50;;;;;;;-2.03;81.84;98433.52;86934;1308;97819;-75
2022/11/19 07:57:47;;;;;;;22.80;16.80;;;;;;;-2.02;81.69;98436.27;86919;1303;22516;-75
2022/11/19 07:59:48;;;;;;;27.80;16.90;;;;;;;-2.01;81.65;98430.23;86770;1295;22515;-75
2022/11/19 08:01:49;;;;;;;28.40;18.00;;;;;;;-2.01;81.77;98435.23;86831;1310;97745;-76
2022/11/19 08:03:51;;;;;;;26.10;16.90;;;;;;;-1.99;81.85;98432.30;86942;1303;25863;-77
2022/11/19 08:05:52;;;;;;;26.30;17.50;;;;;;;-1.98;81.82;98434.18;87245;1302;22805;-76
2022/11/19 08:07:53;;;;;;;29.40;19.90;;;;;;;-1.96;81.65;98430.21;86586;1310;97770;-78
2022/11/19 08:09:55;;;;;;;26.00;17.70;;;;;;;-1.95;81.73;98432.80;86969;1309;25394;-76
2022/11/19 08:11:56;;;;;;;24.50;17.40;;;;;;;-1.94;81.75;98438.29;87256;1288;22446;-76
2022/11/19 08:14:00;;;;;;;27.70;16.40;;;;;;;-1.92;81.73;98438.79;86734;1311;97702;-76
2022/11/19 08:16:08;;;;;;;27.20;18.20;;;;;;;-1.92;81.68;98438.79;86868;1287;22737;-76
2022/11/19 08:18:12;;;;;;;24.90;16.60;;;;;;;-1.90;81.78;98439.48;86792;1312;23346;-75
2022/11/19 08:20:16;;;;;;;27.80;19.00;;;;;;;-1.89;81.66;98441.35;86989;1310;97668;-76
2022/11/19 08:22:17;;;;;;;47.20;25.00;;;;;;;-1.88;81.62;98443.07;86843;1290;22470;-75
2022/11/19 08:24:18;;;;;;;;;;;;;;;-1.86;81.54;98442.02;86917;1306;22496;-73
2022/11/19 08:26:21;;;;;;;25.40;17.30;;;;;;;-1.88;81.62;98442.04;86839;1294;85291;-75
2022/11/19 08:28:22;;;;;;;25.40;18.30;;;;;;;-1.86;81.57;98441.00;86762;1295;22602;-74
2022/11/19 08:30:23;;;;;;;26.90;18.50;;;;;;;-1.84;81.67;98441.16;86922;1288;22477;-77
2022/11/19 08:32:24;;;;;;;27.10;19.10;;;;;;;-1.86;81.44;98443.24;86685;1286;98713;-76
2022/11/19 08:34:25;;;;;;;27.00;18.70;;;;;;;-1.86;81.56;98442.56;86806;1302;25467;-75
2022/11/19 08:36:26;;;;;;;31.70;20.40;;;;;;;-1.84;81.60;98447.52;86681;1290;22411;-75
2022/11/19 08:38:27;;;;;;;26.00;18.00;;;;;;;-1.83;81.61;98448.21;86877;1286;99014;-79
2022/11/19 08:40:28;;;;;;;22.50;17.80;;;;;;;-1.84;81.56;98451.48;87111;1288;23108;-78
2022/11/19 08:44:49;;;;;;;28.10;17.70;;;;;;;-1.90;81.40;98452.21;87064;1307;23245;-78
2022/11/19 08:46:50;;;;;;;25.50;18.70;;;;;;;-1.94;81.40;98449.48;87034;1295;22433;-76
2022/11/19 08:48:51;;;;;;;27.70;19.00;;;;;;;-1.91;81.61;98456.86;87258;1302;98469;-77
2022/11/19 08:50:52;;;;;;;25.00;16.80;;;;;;;-1.90;81.61;98459.97;87085;1298;22556;-77
2022/11/19 08:52:55;;;;;;;25.60;19.20;;;;;;;-1.90;81.50;98464.95;86966;1303;24267;-77
2022/11/19 08:54:56;;;;;;;29.50;18.70;;;;;;;-1.89;81.43;98470.30;87079;1290;98638;-77
2022/11/19 08:56:58;;;;;;;27.90;19.10;;;;;;;-1.87;81.61;98478.36;86938;1297;23074;-76
2022/11/19 08:59:00;;;;;;;35.90;20.10;;;;;;;-1.87;81.37;98475.61;87145;1280;22438;-77
2022/11/19 09:01:09;;;;;;;31.50;20.90;;;;;;;-1.88;81.32;98475.45;86909;1306;97973;-76
2022/11/19 09:03:10;;;;;;;27.90;19.40;;;;;;;-1.91;81.17;98479.60;87031;1294;22430;-77
2022/11/19 09:05:12;;;;;;;24.10;17.90;;;;;;;-1.97;81.16;98479.11;87194;1309;25282;-77
2022/11/19 09:07:13;;;;;;;27.20;19.70;;;;;;;-2.00;81.26;98484.47;87052;1284;97886;-76
2022/11/19 09:09:14;;;;;;;32.00;18.80;;;;;;;-2.01;81.18;98489.48;87218;1307;25222;-77
2022/11/19 09:11:17;;;;;;;33.40;21.30;;;;;;;-2.09;81.14;98478.84;87127;1277;22613;-76
2022/11/19 09:13:18;;;;;;;29.80;20.70;;;;;;;-2.05;81.20;98485.70;86955;1297;99112;-77
2022/11/19 09:15:20;;;;;;;29.50;20.30;;;;;;;-2.04;81.30;98485.52;87098;1306;24214;-79
2022/11/19 09:17:21;;;;;;;28.70;19.80;;;;;;;-2.04;81.19;98482.59;87180;1312;22486;-75
2022/11/19 09:19:22;;;;;;;25.90;19.00;;;;;;;-2.04;81.22;98480.02;87173;1294;97676;-77
2022/11/19 09:21:23;;;;;;;29.80;19.40;;;;;;;-2.05;81.23;98486.04;87041;1306;22587;-76
2022/11/19 09:23:26;;;;;;;25.10;18.40;;;;;;;-2.06;81.17;98483.63;87099;1292;22576;-77
2022/11/19 09:25:28;;;;;;;29.10;19.40;;;;;;;-2.05;81.18;98485.70;86982;1285;98670;-77
2022/11/19 09:27:29;;;;;;;28.10;19.40;;;;;;;-2.02;81.38;98484.13;87105;1310;22437;-77
2022/11/19 09:29:30;;;;;;;29.20;18.60;;;;;;;-2.00;81.24;98489.98;87179;1310;22847;-78
2022/11/19 09:31:31;;;;;;;31.70;21.20;;;;;;;-2.01;81.17;98491.36;87123;1308;100770;-78
2022/11/19 09:33:35;;;;;;;32.50;21.40;;;;;;;-2.01;81.21;98493.59;87183;1309;24271;-77
2022/11/19 09:35:37;;;;;;;34.40;22.10;;;;;;;-2.01;81.09;98493.08;87163;1287;23352;-78
2022/11/19 09:37:38;;;;;;;27.60;19.30;;;;;;;-1.99;81.24;98495.65;86966;1304;97945;-77
2022/11/19 09:39:39;;;;;;;34.10;21.10;;;;;;;-1.97;81.18;98493.57;87132;1292;22515;-78
2022/11/19 09:41:46;;;;;;;33.60;20.30;;;;;;;-1.99;81.06;98488.92;87320;1309;24221;-77
2022/11/19 09:44:07;;;;;;;32.10;19.70;;;;;;;-1.97;81.18;98487.02;87617;1290;97776;-77
2022/11/19 09:46:34;;;;;;;25.80;18.30;;;;;;;-1.97;80.93;98487.36;87118;1294;25443;-78
2022/11/19 09:48:37;;;;;;;26.30;18.40;;;;;;;-1.92;81.16;98492.86;86753;1313;26984;-78
2022/11/19 09:50:53;;;;;;;27.30;18.90;;;;;;;-1.88;81.28;98494.90;86717;1300;97895;-78
2022/11/19 09:53:06;;;;;;;33.90;20.50;;;;;;;-1.84;81.04;98492.13;86838;1286;22473;-77
2022/11/19 09:55:18;;;;;;;28.20;20.80;;;;;;;-1.83;80.93;98494.70;86904;1296;98657;-77